createdAt,value
2022-11-04T00:00:14.252Z,68.41
2022-11-04T00:01:14.156Z,68.29
2022-11-04T00:02:14.276Z,68.18
2022-11-04T00:03:14.134Z,67.97
2022-11-04T00:04:14.117Z,67.83
2022-11-04T00:05:14.102Z,67.77
2022-11-04T00:06:14.094Z,67.75
2022-11-04T00:07:14.073Z,67.75
2022-11-04T00:08:14.075Z,67.65
2022-11-04T00:09:14.067Z,67.65
2022-11-04T00:10:14.023Z,67.69
2022-11-04T00:11:14.054Z,67.78
2022-11-04T00:12:14.015Z,67.97
2022-11-04T00:13:13.995Z,67.96
2022-11-04T00:14:14.000Z,67.98
2022-11-04T00:15:13.960Z,67.98
2022-11-04T00:16:13.969Z,68.10
2022-11-04T00:17:13.938Z,68.21
2022-11-04T00:18:13.947Z,68.19
2022-11-04T00:19:13.904Z,68.27
2022-11-04T00:20:13.918Z,68.34
2022-11-04T00:21:13.877Z,68.39
2022-11-04T00:22:13.869Z,68.40
2022-11-04T00:23:13.861Z,68.46
2022-11-04T00:24:13.836Z,68.63
2022-11-04T00:25:13.824Z,68.58
2022-11-04T00:26:13.809Z,68.67
2022-11-04T00:27:13.844Z,68.83
2022-11-04T00:28:13.815Z,68.99
2022-11-04T00:29:13.772Z,69.12
2022-11-04T00:30:13.780Z,69.24
2022-11-04T00:31:13.763Z,69.45
2022-11-04T00:32:13.729Z,69.30
2022-11-04T00:33:13.737Z,69.64
2022-11-04T00:34:13.734Z,69.44
2022-11-04T00:35:13.692Z,69.55
2022-11-04T00:36:13.682Z,69.55
2022-11-04T00:37:13.671Z,69.35
2022-11-04T00:38:13.653Z,69.62
2022-11-04T00:39:13.677Z,69.74
2022-11-04T00:40:13.636Z,69.72
2022-11-04T00:41:13.617Z,69.98
2022-11-04T00:42:13.628Z,70.04
2022-11-04T00:43:13.599Z,69.67
2022-11-04T00:44:13.592Z,69.87
2022-11-04T00:45:13.602Z,70.10
2022-11-04T00:46:13.567Z,69.90
2022-11-04T00:47:13.579Z,69.72
2022-11-04T00:48:13.526Z,69.75
2022-11-04T00:49:13.530Z,69.61
2022-11-04T00:50:13.505Z,69.73
2022-11-04T00:52:13.511Z,69.88
2022-11-04T00:53:13.485Z,69.72
2022-11-04T00:54:13.456Z,69.83
2022-11-04T00:55:13.465Z,69.92
2022-11-04T00:56:13.447Z,70.24
2022-11-04T00:57:13.427Z,70.76
2022-11-04T00:58:13.406Z,70.98
2022-11-04T00:59:14.641Z,71.56
2022-11-04T01:00:13.406Z,71.90
2022-11-04T01:01:13.585Z,72.41
2022-11-04T01:02:13.490Z,73.04
2022-11-04T01:03:13.353Z,72.85
2022-11-04T01:04:13.352Z,73.53
2022-11-04T01:05:13.325Z,74.82
2022-11-04T01:06:13.302Z,74.80
2022-11-04T01:07:13.328Z,75.18
2022-11-04T01:08:13.286Z,75.84
2022-11-04T01:09:13.271Z,75.97
2022-11-04T01:10:13.248Z,76.08
2022-11-04T01:11:13.262Z,77.36
2022-11-04T01:12:13.259Z,77.11
2022-11-04T01:13:13.230Z,77.36
2022-11-04T01:14:13.248Z,77.69
2022-11-04T01:15:13.190Z,78.39
2022-11-04T01:16:13.383Z,78.89
2022-11-04T01:17:13.187Z,79.20
2022-11-04T01:18:13.172Z,79.06
2022-11-04T01:19:13.164Z,79.28
2022-11-04T01:20:13.132Z,79.36
2022-11-04T01:21:13.124Z,80.10
2022-11-04T01:22:13.105Z,79.90
2022-11-04T01:23:13.116Z,79.41
2022-11-04T01:24:13.092Z,79.72
2022-11-04T01:25:13.092Z,80.14
2022-11-04T01:26:13.054Z,80.49
2022-11-04T01:27:13.060Z,80.25
2022-11-04T01:28:13.037Z,80.34
2022-11-04T01:29:13.032Z,80.29
2022-11-04T01:30:13.028Z,80.59
2022-11-04T01:31:13.018Z,80.77
2022-11-04T01:32:13.006Z,80.55
2022-11-04T01:33:12.976Z,80.18
2022-11-04T01:34:12.954Z,80.38
2022-11-04T01:35:12.947Z,81.03
2022-11-04T01:36:12.940Z,81.19
2022-11-04T01:37:12.931Z,81.41
2022-11-04T01:38:12.935Z,81.02
2022-11-04T01:39:12.904Z,81.47
2022-11-04T01:40:12.882Z,81.49
2022-11-04T01:41:12.876Z,81.02
2022-11-04T01:42:12.854Z,80.83
2022-11-04T01:43:12.846Z,81.30
2022-11-04T01:44:12.839Z,81.47
2022-11-04T01:45:12.824Z,81.98
2022-11-04T01:46:12.803Z,81.29
2022-11-04T01:47:12.798Z,81.60
2022-11-04T01:48:12.773Z,80.90
2022-11-04T01:49:12.786Z,80.81
2022-11-04T01:50:12.752Z,80.79
2022-11-04T01:51:12.743Z,80.71
2022-11-04T01:52:12.725Z,81.56
2022-11-04T01:53:12.714Z,80.80
2022-11-04T01:54:12.705Z,80.73
2022-11-04T01:55:12.698Z,81.28
2022-11-04T01:56:12.708Z,80.11
2022-11-04T01:57:15.062Z,80.16
2022-11-04T01:58:12.658Z,80.58
2022-11-04T01:59:12.642Z,80.15
2022-11-04T02:00:12.635Z,80.12
2022-11-04T02:01:12.682Z,79.63
2022-11-04T02:02:12.744Z,79.67
2022-11-04T02:03:12.591Z,79.78
2022-11-04T02:04:12.571Z,80.54
2022-11-04T02:05:12.579Z,79.81
2022-11-04T02:06:12.562Z,79.29
2022-11-04T02:07:12.549Z,79.00
2022-11-04T02:08:12.526Z,78.87
2022-11-04T02:09:12.517Z,79.33
2022-11-04T02:10:12.528Z,79.31
2022-11-04T02:11:12.508Z,79.22
2022-11-04T02:12:12.481Z,78.96
2022-11-04T02:13:12.473Z,79.50
2022-11-04T02:14:12.446Z,79.20
2022-11-04T02:15:12.438Z,79.54
2022-11-04T02:16:12.426Z,78.68
2022-11-04T02:17:12.417Z,78.16
2022-11-04T02:18:12.400Z,78.35
2022-11-04T02:19:12.385Z,78.68
2022-11-04T02:20:12.372Z,79.09
2022-11-04T02:21:12.355Z,79.23
2022-11-04T02:22:12.364Z,79.16
2022-11-04T02:23:12.337Z,78.93
2022-11-04T02:24:12.347Z,78.65
2022-11-04T02:25:12.306Z,78.89
2022-11-04T02:26:12.303Z,78.10
2022-11-04T02:27:12.311Z,78.06
2022-11-04T02:28:12.267Z,78.26
2022-11-04T02:29:12.264Z,78.23
2022-11-04T02:30:12.274Z,78.19
2022-11-04T02:31:12.246Z,77.94
2022-11-04T02:32:12.230Z,77.74
2022-11-04T02:33:12.296Z,78.42
2022-11-04T02:34:12.248Z,79.00
2022-11-04T02:35:12.211Z,78.22
2022-11-04T02:36:12.173Z,79.00
2022-11-04T02:37:12.155Z,78.72
2022-11-04T02:38:12.163Z,79.06
2022-11-04T02:39:12.157Z,78.54
2022-11-04T02:40:12.139Z,78.52
2022-11-04T02:41:12.111Z,78.59
2022-11-04T02:42:12.096Z,78.65
2022-11-04T02:43:12.353Z,77.89
2022-11-04T02:44:12.077Z,77.88
2022-11-04T02:45:12.055Z,77.31
2022-11-04T02:46:12.058Z,77.21
2022-11-04T02:47:12.032Z,76.86
2022-11-04T02:48:12.031Z,77.42
2022-11-04T02:49:12.034Z,78.32
2022-11-04T02:50:12.001Z,78.39
2022-11-04T02:51:11.983Z,77.89
2022-11-04T02:52:11.982Z,77.82
2022-11-04T02:53:12.143Z,77.03
2022-11-04T02:54:11.971Z,77.64
2022-11-04T02:55:11.958Z,77.49
2022-11-04T02:56:11.939Z,77.61
2022-11-04T02:57:11.914Z,78.24
2022-11-04T02:58:11.911Z,78.30
2022-11-04T02:59:11.881Z,78.35
2022-11-04T03:00:11.873Z,77.68
2022-11-04T03:01:11.917Z,77.96
2022-11-04T03:02:11.954Z,77.48
2022-11-04T03:03:12.008Z,77.02
2022-11-04T03:04:11.824Z,76.90
2022-11-04T03:05:11.810Z,76.58
2022-11-04T03:06:11.827Z,76.58
2022-11-04T03:08:11.921Z,76.70
2022-11-04T03:09:11.758Z,77.89
2022-11-04T03:10:11.749Z,77.78
2022-11-04T03:11:11.739Z,76.71
2022-11-04T03:12:11.737Z,76.54
2022-11-04T03:13:11.714Z,76.80
2022-11-04T03:14:11.706Z,76.39
2022-11-04T03:15:11.691Z,76.94
2022-11-04T03:16:11.703Z,76.84
2022-11-04T03:17:11.678Z,76.04
2022-11-04T03:18:11.766Z,75.77
2022-11-04T03:19:11.631Z,75.82
2022-11-04T03:20:11.631Z,76.15
2022-11-04T03:21:11.615Z,75.57
2022-11-04T03:22:11.601Z,74.64
2022-11-04T03:23:11.621Z,74.38
2022-11-04T03:24:11.588Z,75.13
2022-11-04T03:25:11.559Z,75.68
2022-11-04T03:26:11.576Z,74.80
2022-11-04T03:27:11.541Z,74.44
2022-11-04T03:28:11.781Z,74.33
2022-11-04T03:29:11.544Z,74.62
2022-11-04T03:30:11.548Z,75.47
2022-11-04T03:31:11.485Z,74.61
2022-11-04T03:32:11.501Z,75.00
2022-11-04T03:33:11.790Z,76.14
2022-11-04T03:34:11.487Z,75.35
2022-11-04T03:35:11.455Z,75.26
2022-11-04T03:36:11.459Z,75.99
2022-11-04T03:37:11.418Z,76.44
2022-11-04T03:38:11.408Z,75.46
2022-11-04T03:39:11.409Z,75.20
2022-11-04T03:40:11.387Z,75.81
2022-11-04T03:41:11.381Z,75.07
2022-11-04T03:42:11.367Z,74.83
2022-11-04T03:43:11.702Z,74.59
2022-11-04T03:44:11.358Z,74.80
2022-11-04T03:45:11.340Z,75.75
2022-11-04T03:46:11.326Z,74.60
2022-11-04T03:47:11.319Z,74.24
2022-11-04T03:48:11.288Z,74.29
2022-11-04T03:49:11.268Z,73.25
2022-11-04T03:50:11.262Z,73.51
2022-11-04T03:51:11.278Z,73.69
2022-11-04T03:52:11.243Z,74.01
2022-11-04T03:53:11.706Z,74.41
2022-11-04T03:54:11.222Z,74.24
2022-11-04T03:55:11.196Z,74.06
2022-11-04T03:56:11.224Z,73.81
2022-11-04T03:57:11.170Z,74.68
2022-11-04T03:58:11.495Z,74.83
2022-11-04T03:59:11.165Z,74.23
2022-11-04T04:00:11.145Z,74.57
2022-11-04T04:01:11.196Z,73.63
2022-11-04T04:02:11.148Z,73.64
2022-11-04T04:03:11.120Z,73.20
2022-11-04T04:04:11.111Z,72.89
2022-11-04T04:05:15.906Z,73.28
2022-11-04T04:06:11.100Z,73.18
2022-11-04T04:07:11.055Z,73.24
2022-11-04T04:08:11.524Z,73.50
2022-11-04T04:09:11.045Z,73.48
2022-11-04T04:10:11.020Z,73.50
2022-11-04T04:11:11.015Z,72.94
2022-11-04T04:12:10.997Z,72.65
2022-11-04T04:13:11.036Z,73.29
2022-11-04T04:14:11.004Z,73.45
2022-11-04T04:15:10.977Z,73.11
2022-11-04T04:16:10.961Z,73.12
2022-11-04T04:17:10.940Z,72.35
2022-11-04T04:18:11.357Z,72.44
2022-11-04T04:19:10.930Z,72.48
2022-11-04T04:20:10.915Z,73.46
2022-11-04T04:21:10.908Z,73.92
2022-11-04T04:22:10.887Z,72.83
2022-11-04T04:23:10.874Z,72.18
2022-11-04T04:24:10.848Z,72.48
2022-11-04T04:25:10.851Z,72.19
2022-11-04T04:26:10.832Z,72.53
2022-11-04T04:27:10.804Z,72.46
2022-11-04T04:28:11.192Z,72.50
2022-11-04T04:29:10.785Z,72.16
2022-11-04T04:30:10.766Z,72.54
2022-11-04T04:31:10.758Z,72.34
2022-11-04T04:32:10.751Z,71.73
2022-11-04T04:33:10.733Z,71.96
2022-11-04T04:34:10.734Z,72.14
2022-11-04T04:35:10.710Z,72.06
2022-11-04T04:36:10.707Z,72.32
2022-11-04T04:37:10.679Z,73.07
2022-11-04T04:38:11.051Z,72.64
2022-11-04T04:39:10.656Z,72.43
2022-11-04T04:40:10.657Z,72.85
2022-11-04T04:41:10.645Z,72.64
2022-11-04T04:42:10.628Z,71.66
2022-11-04T04:43:10.838Z,71.62
2022-11-04T04:44:10.636Z,71.91
2022-11-04T04:45:10.585Z,72.39
2022-11-04T04:46:10.579Z,71.59
2022-11-04T04:47:10.566Z,71.52
2022-11-04T04:48:10.548Z,71.41
2022-11-04T04:49:10.544Z,72.04
2022-11-04T04:50:10.526Z,71.80
2022-11-04T04:51:10.509Z,71.39
2022-11-04T04:52:10.520Z,71.98
2022-11-04T04:53:10.876Z,71.59
2022-11-04T04:54:10.481Z,71.77
2022-11-04T04:55:10.459Z,72.04
2022-11-04T04:56:10.467Z,71.28
2022-11-04T04:57:10.450Z,71.24
2022-11-04T04:58:10.463Z,72.46
2022-11-04T04:59:10.407Z,71.79
2022-11-04T05:00:10.401Z,71.14
2022-11-04T05:01:10.447Z,71.52
2022-11-04T05:02:10.755Z,70.88
2022-11-04T05:03:10.793Z,71.40
2022-11-04T05:04:10.360Z,71.00
2022-11-04T05:05:10.422Z,71.58
2022-11-04T05:06:10.345Z,71.65
2022-11-04T05:07:10.304Z,71.63
2022-11-04T05:08:10.672Z,71.44
2022-11-04T05:09:10.289Z,70.61
2022-11-04T05:10:10.285Z,71.13
2022-11-04T05:11:10.252Z,70.84
2022-11-04T05:12:10.250Z,71.00
2022-11-04T05:13:10.227Z,70.66
2022-11-04T05:14:10.232Z,70.31
2022-11-04T05:15:10.211Z,70.99
2022-11-04T05:16:10.203Z,70.89
2022-11-04T05:17:10.178Z,71.14
2022-11-04T05:18:10.523Z,70.61
2022-11-04T05:19:10.157Z,71.82
2022-11-04T05:20:10.144Z,71.30
2022-11-04T05:21:10.145Z,70.56
2022-11-04T05:22:10.149Z,70.44
2022-11-04T05:23:10.111Z,70.95
2022-11-04T05:24:10.098Z,70.50
2022-11-04T05:25:10.079Z,71.11
2022-11-04T05:26:10.069Z,71.86
2022-11-04T05:27:10.066Z,70.62
2022-11-04T05:28:10.479Z,70.66
2022-11-04T05:29:10.089Z,70.97
2022-11-04T05:30:10.029Z,70.51
2022-11-04T05:31:10.002Z,70.95
2022-11-04T05:32:10.030Z,71.64
2022-11-04T05:33:10.506Z,71.93
2022-11-04T05:34:09.971Z,71.22
2022-11-04T05:35:09.956Z,71.84
2022-11-04T05:36:09.978Z,70.80
2022-11-04T05:37:09.940Z,71.55
2022-11-04T05:38:09.928Z,72.33
2022-11-04T05:39:09.905Z,72.49
2022-11-04T05:40:09.911Z,72.71
2022-11-04T05:41:09.906Z,72.19
2022-11-04T05:42:09.873Z,73.01
2022-11-04T05:43:10.298Z,72.89
2022-11-04T05:44:09.878Z,72.40
2022-11-04T05:45:09.831Z,71.96
2022-11-04T05:46:09.824Z,72.67
2022-11-04T05:47:09.808Z,72.46
2022-11-04T05:48:09.799Z,72.51
2022-11-04T05:49:09.822Z,71.93
2022-11-04T05:50:09.771Z,72.25
2022-11-04T05:51:09.772Z,72.66
2022-11-04T05:52:09.746Z,72.44
2022-11-04T05:53:10.039Z,72.56
2022-11-04T05:54:09.725Z,72.31
2022-11-04T05:55:09.711Z,72.79
2022-11-04T05:56:09.699Z,73.26
2022-11-04T05:57:09.693Z,72.77
2022-11-04T05:58:10.022Z,72.05
2022-11-04T05:59:09.686Z,72.46
2022-11-04T06:00:09.668Z,72.02
2022-11-04T06:01:09.636Z,71.84
2022-11-04T06:02:09.774Z,72.09
2022-11-04T06:03:12.147Z,72.87
2022-11-04T06:04:09.631Z,72.78
2022-11-04T06:05:09.586Z,72.77
2022-11-04T06:06:09.587Z,74.14
2022-11-04T06:07:09.570Z,74.22
2022-11-04T06:08:10.062Z,75.13
2022-11-04T06:09:09.564Z,76.56
2022-11-04T06:10:09.528Z,76.52
2022-11-04T06:11:09.521Z,77.88
2022-11-04T06:12:09.497Z,78.34
2022-11-04T06:13:09.485Z,78.99
2022-11-04T06:14:10.304Z,79.12
2022-11-04T06:15:09.481Z,79.52
2022-11-04T06:16:09.478Z,79.08
2022-11-04T06:17:09.492Z,78.47
2022-11-04T06:18:09.797Z,78.13
2022-11-04T06:19:13.416Z,78.96
2022-11-04T06:20:09.434Z,79.35
2022-11-04T06:21:09.388Z,78.95
2022-11-04T06:22:09.410Z,78.99
2022-11-04T06:23:09.372Z,79.13
2022-11-04T06:24:09.375Z,80.43
2022-11-04T06:25:09.370Z,80.43
2022-11-04T06:26:09.332Z,80.17
2022-11-04T06:27:09.351Z,80.35
2022-11-04T06:28:09.640Z,80.19
2022-11-04T06:29:09.683Z,80.51
2022-11-04T06:30:09.274Z,80.98
2022-11-04T06:31:09.255Z,81.51
2022-11-04T06:32:09.275Z,81.87
2022-11-04T06:33:09.276Z,82.19
2022-11-04T06:34:09.239Z,82.12
2022-11-04T06:35:09.218Z,80.87
2022-11-04T06:36:09.225Z,80.86
2022-11-04T06:37:09.194Z,80.73
2022-11-04T06:38:09.536Z,81.53
2022-11-04T06:39:09.164Z,82.38
2022-11-04T06:40:09.161Z,82.05
2022-11-04T06:41:09.134Z,82.26
2022-11-04T06:42:09.143Z,82.64
2022-11-04T06:43:09.398Z,82.64
2022-11-04T06:44:09.093Z,82.63
2022-11-04T06:45:09.102Z,82.77
2022-11-04T06:46:09.067Z,82.86
2022-11-04T06:47:09.053Z,82.84
2022-11-04T06:48:09.059Z,82.90
2022-11-04T06:49:09.061Z,82.89
2022-11-04T06:50:09.017Z,83.32
2022-11-04T06:51:09.013Z,83.35
2022-11-04T06:52:09.009Z,83.06
2022-11-04T06:53:09.302Z,83.24
2022-11-04T06:54:08.995Z,83.27
2022-11-04T06:55:08.953Z,83.51
2022-11-04T06:56:08.943Z,83.72
2022-11-04T06:57:08.949Z,83.89
2022-11-04T06:58:08.926Z,84.05
2022-11-04T06:59:08.916Z,84.15
2022-11-04T07:00:08.903Z,84.28
2022-11-04T07:01:13.727Z,84.37
2022-11-04T07:02:09.122Z,84.49
2022-11-04T07:03:09.279Z,84.54
2022-11-04T07:04:08.845Z,84.55
2022-11-04T07:05:08.872Z,84.53
2022-11-04T07:06:08.838Z,84.53
2022-11-04T07:07:08.825Z,84.46
2022-11-04T07:08:09.154Z,84.44
2022-11-04T07:09:08.775Z,84.39
2022-11-04T07:10:08.808Z,83.86
2022-11-04T07:11:08.773Z,83.78
2022-11-04T07:12:08.764Z,83.82
2022-11-04T07:13:08.726Z,84.07
2022-11-04T07:14:08.716Z,84.12
2022-11-04T07:15:08.698Z,84.28
2022-11-04T07:16:08.689Z,84.28
2022-11-04T07:17:08.692Z,84.27
2022-11-04T07:18:09.037Z,84.21
2022-11-04T07:19:08.671Z,84.16
2022-11-04T07:20:08.646Z,84.30
2022-11-04T07:21:10.131Z,84.46
2022-11-04T07:22:08.606Z,84.36
2022-11-04T07:23:08.602Z,84.14
2022-11-04T07:24:08.601Z,84.03
2022-11-04T07:25:08.576Z,84.16
2022-11-04T07:26:08.579Z,84.27
2022-11-04T07:27:08.553Z,84.21
2022-11-04T07:28:08.988Z,84.05
2022-11-04T07:29:08.517Z,83.99
2022-11-04T07:30:08.502Z,83.95
2022-11-04T07:31:08.519Z,83.85
2022-11-04T07:32:08.524Z,83.70
2022-11-04T07:33:08.490Z,83.96
2022-11-04T07:34:08.459Z,84.08
2022-11-04T07:35:08.469Z,84.01
2022-11-04T07:36:08.424Z,83.57
2022-11-04T07:37:08.437Z,83.06
2022-11-04T07:38:08.678Z,82.63
2022-11-04T07:39:08.420Z,83.16
2022-11-04T07:40:08.375Z,83.03
2022-11-04T07:41:08.425Z,83.24
2022-11-04T07:42:08.379Z,83.41
2022-11-04T07:43:08.374Z,83.30
2022-11-04T07:44:08.334Z,83.77
2022-11-04T07:45:08.358Z,84.03
2022-11-04T07:46:08.304Z,84.11
2022-11-04T07:47:08.320Z,84.19
2022-11-04T07:48:08.586Z,83.66
2022-11-04T07:49:08.291Z,83.97
2022-11-04T07:50:11.259Z,83.06
2022-11-04T07:51:08.245Z,82.35
2022-11-04T07:52:08.249Z,82.76
2022-11-04T07:53:08.649Z,82.36
2022-11-04T07:54:08.206Z,82.27
2022-11-04T07:55:08.215Z,83.10
2022-11-04T07:56:08.187Z,83.40
2022-11-04T07:57:08.175Z,83.39
2022-11-04T07:58:08.150Z,83.80
2022-11-04T07:59:08.176Z,83.71
2022-11-04T08:00:08.129Z,83.44
2022-11-04T08:01:08.120Z,83.44
2022-11-04T08:02:08.285Z,82.51
2022-11-04T08:03:08.548Z,82.32
2022-11-04T08:04:08.091Z,82.84
2022-11-04T08:05:08.067Z,82.16
2022-11-04T08:06:08.067Z,81.74
2022-11-04T08:07:08.058Z,81.91
2022-11-04T08:08:08.036Z,82.05
2022-11-04T08:09:08.030Z,82.20
2022-11-04T08:10:08.018Z,82.19
2022-11-04T08:11:11.472Z,82.58
2022-11-04T08:12:07.993Z,82.58
2022-11-04T08:13:08.337Z,82.74
2022-11-04T08:14:07.963Z,82.36
2022-11-04T08:15:07.944Z,82.53
2022-11-04T08:16:07.926Z,82.79
2022-11-04T08:17:07.948Z,82.86
2022-11-04T08:18:07.922Z,82.56
2022-11-04T08:19:07.889Z,82.63
2022-11-04T08:20:07.874Z,82.51
2022-11-04T08:21:07.876Z,83.02
2022-11-04T08:22:07.850Z,83.46
2022-11-04T08:23:08.148Z,83.11
2022-11-04T08:24:07.827Z,83.49
2022-11-04T08:25:07.812Z,83.53
2022-11-04T08:26:07.802Z,83.83
2022-11-04T08:27:07.796Z,83.69
2022-11-04T08:28:07.785Z,83.29
2022-11-04T08:29:07.771Z,83.70
2022-11-04T08:30:07.745Z,83.37
2022-11-04T08:31:07.745Z,83.14
2022-11-04T08:32:07.729Z,82.80
2022-11-04T08:33:07.959Z,82.55
2022-11-04T08:34:07.696Z,82.79
2022-11-04T08:35:07.686Z,83.07
2022-11-04T08:36:07.674Z,83.06
2022-11-04T08:37:07.668Z,82.36
2022-11-04T08:38:07.663Z,82.12
2022-11-04T08:39:10.992Z,82.21
2022-11-04T08:40:07.620Z,82.14
2022-11-04T08:41:07.612Z,82.35
2022-11-04T08:42:07.599Z,82.39
2022-11-04T08:43:07.920Z,83.37
2022-11-04T08:44:07.564Z,83.79
2022-11-04T08:45:07.555Z,83.84
2022-11-04T08:46:07.540Z,84.00
2022-11-04T08:47:07.543Z,84.17
2022-11-04T08:48:07.969Z,84.22
2022-11-04T08:49:10.228Z,84.49
2022-11-04T08:50:07.488Z,84.49
2022-11-04T08:51:07.487Z,84.50
2022-11-04T08:52:07.465Z,84.81
2022-11-04T08:53:07.834Z,84.98
2022-11-04T08:54:07.461Z,84.78
2022-11-04T08:55:07.437Z,84.57
2022-11-04T08:56:07.413Z,84.52
2022-11-04T08:57:07.407Z,84.05
2022-11-04T08:58:07.757Z,83.98
2022-11-04T08:59:07.379Z,83.96
2022-11-04T09:00:07.378Z,83.32
2022-11-04T09:01:07.357Z,83.13
2022-11-04T09:02:07.465Z,82.88
2022-11-04T09:03:07.660Z,83.05
2022-11-04T09:04:07.428Z,83.18
2022-11-04T09:05:07.314Z,82.78
2022-11-04T09:06:07.309Z,82.78
2022-11-04T09:07:08.428Z,82.64
2022-11-04T09:08:07.265Z,82.65
2022-11-04T09:09:07.261Z,83.04
2022-11-04T09:10:07.250Z,83.17
2022-11-04T09:11:07.234Z,82.74
2022-11-04T09:12:07.240Z,83.06
2022-11-04T09:13:07.485Z,83.51
2022-11-04T09:14:07.212Z,83.47
2022-11-04T09:15:07.188Z,83.81
2022-11-04T09:16:07.192Z,83.90
2022-11-04T09:17:07.151Z,84.01
2022-11-04T09:18:07.164Z,84.12
2022-11-04T09:19:07.135Z,84.01
2022-11-04T09:20:07.120Z,84.11
2022-11-04T09:21:07.103Z,83.41
2022-11-04T09:22:07.095Z,83.57
2022-11-04T09:23:07.530Z,83.74
2022-11-04T09:24:07.075Z,84.00
2022-11-04T09:25:07.072Z,83.98
2022-11-04T09:26:07.036Z,83.90
2022-11-04T09:27:07.039Z,83.51
2022-11-04T09:28:07.035Z,83.50
2022-11-04T09:29:07.009Z,83.89
2022-11-04T09:30:06.991Z,83.88
2022-11-04T09:31:06.977Z,83.32
2022-11-04T09:32:06.975Z,83.53
2022-11-04T09:33:07.237Z,83.62
2022-11-04T09:34:06.948Z,83.82
2022-11-04T09:35:06.930Z,84.06
2022-11-04T09:36:06.909Z,84.19
2022-11-04T09:37:06.898Z,84.12
2022-11-04T09:38:06.885Z,83.72
2022-11-04T09:39:06.897Z,83.90
2022-11-04T09:40:06.860Z,84.24
2022-11-04T09:41:06.863Z,84.60
2022-11-04T09:42:06.835Z,84.80
2022-11-04T09:43:07.194Z,84.82
2022-11-04T09:44:06.840Z,84.29
2022-11-04T09:45:21.122Z,84.36
2022-11-04T09:46:06.812Z,84.11
2022-11-04T09:47:06.777Z,84.27
2022-11-04T09:48:06.755Z,84.39
2022-11-04T09:49:06.763Z,84.66
2022-11-04T09:50:06.731Z,84.72
2022-11-04T09:51:12.931Z,85.11
2022-11-04T09:52:06.733Z,85.18
2022-11-04T09:53:07.037Z,85.19
2022-11-04T09:54:06.686Z,85.09
2022-11-04T09:55:06.679Z,85.17
2022-11-04T09:56:06.655Z,85.09
2022-11-04T09:57:06.641Z,85.19
2022-11-04T09:58:06.701Z,85.22
2022-11-04T09:59:06.622Z,85.39
2022-11-04T10:00:06.616Z,85.31
2022-11-04T10:01:06.627Z,85.33
2022-11-04T10:02:06.614Z,85.22
2022-11-04T10:03:06.862Z,85.36
2022-11-04T10:04:06.551Z,85.38
2022-11-04T10:05:06.550Z,85.40
2022-11-04T10:06:06.525Z,85.38
2022-11-04T10:07:06.592Z,85.15
2022-11-04T10:08:06.497Z,85.06
2022-11-04T10:09:06.490Z,85.16
2022-11-04T10:10:06.486Z,85.23
2022-11-04T10:11:06.480Z,85.17
2022-11-04T10:12:06.457Z,84.45
2022-11-04T10:13:06.802Z,84.23
2022-11-04T10:14:06.433Z,84.38
2022-11-04T10:15:06.422Z,84.21
2022-11-04T10:16:06.398Z,84.48
2022-11-04T10:17:06.385Z,84.33
2022-11-04T10:18:06.381Z,84.22
2022-11-04T10:19:06.364Z,83.88
2022-11-04T10:20:06.351Z,83.82
2022-11-04T10:21:06.336Z,84.19
2022-11-04T10:22:06.324Z,83.80
2022-11-04T10:23:06.602Z,83.55
2022-11-04T10:24:06.309Z,82.94
2022-11-04T10:25:06.286Z,83.55
2022-11-04T10:26:06.275Z,83.71
2022-11-04T10:27:06.259Z,83.87
2022-11-04T10:28:06.245Z,83.74
2022-11-04T10:29:06.248Z,83.67
2022-11-04T10:30:06.245Z,83.91
2022-11-04T10:31:06.251Z,84.03
2022-11-04T10:32:06.197Z,84.09
2022-11-04T10:33:06.461Z,83.08
2022-11-04T10:34:06.173Z,82.60
2022-11-04T10:35:06.168Z,82.34
2022-11-04T10:36:06.183Z,81.87
2022-11-04T10:37:06.143Z,80.86
2022-11-04T10:38:06.118Z,80.88
2022-11-04T10:39:06.131Z,81.49
2022-11-04T10:40:06.095Z,82.21
2022-11-04T10:41:07.371Z,82.32
2022-11-04T10:42:06.085Z,81.71
2022-11-04T10:43:06.079Z,81.94
2022-11-04T10:44:06.048Z,82.14
2022-11-04T10:45:06.036Z,81.78
2022-11-04T10:46:06.047Z,81.14
2022-11-04T10:47:06.024Z,81.37
2022-11-04T10:48:05.997Z,81.79
2022-11-04T10:49:05.989Z,81.88
2022-11-04T10:51:05.965Z,82.18
2022-11-04T10:52:05.950Z,82.04
2022-11-04T10:53:06.109Z,82.06
2022-11-04T10:54:05.924Z,81.36
2022-11-04T10:55:05.911Z,80.26
2022-11-04T10:56:05.894Z,80.84
2022-11-04T10:57:05.942Z,81.36
2022-11-04T10:58:05.882Z,81.33
2022-11-04T10:59:05.867Z,81.19
2022-11-04T11:00:05.863Z,80.37
2022-11-04T11:01:07.317Z,80.49
2022-11-04T11:02:05.915Z,80.83
2022-11-04T11:03:06.096Z,80.94
2022-11-04T11:04:05.807Z,81.03
2022-11-04T11:05:05.780Z,81.49
2022-11-04T11:06:05.783Z,81.59
2022-11-04T11:07:05.768Z,81.87
2022-11-04T11:08:05.746Z,82.15
2022-11-04T11:09:05.741Z,82.33
2022-11-04T11:10:05.729Z,82.12
2022-11-04T11:11:05.704Z,81.54
2022-11-04T11:12:23.325Z,81.66
2022-11-04T11:13:05.712Z,81.75
2022-11-04T11:14:05.679Z,81.77
2022-11-04T11:15:06.445Z,81.83
2022-11-04T11:16:05.655Z,81.53
2022-11-04T11:17:05.637Z,81.53
2022-11-04T11:18:05.632Z,81.86
2022-11-04T11:19:05.605Z,82.10
2022-11-04T11:20:05.609Z,82.29
2022-11-04T11:21:05.680Z,81.22
2022-11-04T11:22:05.585Z,80.88
2022-11-04T11:23:05.589Z,81.48
2022-11-04T11:24:05.542Z,81.24
2022-11-04T11:25:05.526Z,80.92
2022-11-04T11:26:05.517Z,80.91
2022-11-04T11:27:05.546Z,81.40
2022-11-04T11:28:05.493Z,81.58
2022-11-04T11:29:05.482Z,81.42
2022-11-04T11:30:05.480Z,81.50
2022-11-04T11:31:05.452Z,80.61
2022-11-04T11:32:05.447Z,80.94
2022-11-04T11:33:05.521Z,81.24
2022-11-04T11:34:05.416Z,81.01
2022-11-04T11:35:10.697Z,81.30
2022-11-04T11:36:05.432Z,81.75
2022-11-04T11:37:05.377Z,81.87
2022-11-04T11:38:05.380Z,82.12
2022-11-04T11:39:05.357Z,82.38
2022-11-04T11:40:05.341Z,82.38
2022-11-04T11:41:23.761Z,82.22
2022-11-04T11:42:05.335Z,82.05
2022-11-04T11:43:05.362Z,82.20
2022-11-04T11:44:05.320Z,81.97
2022-11-04T11:45:05.281Z,81.92
2022-11-04T11:46:05.287Z,81.19
2022-11-04T11:47:05.250Z,81.65
2022-11-04T11:48:05.242Z,81.93
2022-11-04T11:49:05.226Z,82.43
2022-11-04T11:50:05.243Z,82.78
2022-11-04T11:51:05.202Z,83.08
2022-11-04T11:52:05.194Z,83.03
2022-11-04T11:53:05.183Z,81.67
2022-11-04T11:54:05.163Z,81.75
2022-11-04T11:55:05.160Z,81.81
2022-11-04T11:56:05.171Z,81.58
2022-11-04T11:57:13.864Z,82.03
2022-11-04T12:01:08.401Z,81.87
2022-11-04T12:02:05.190Z,81.15
2022-11-04T12:03:05.418Z,81.24
2022-11-04T12:06:20.641Z,81.93
2022-11-04T12:09:23.116Z,82.32
2022-11-04T12:10:09.969Z,82.47
2022-11-04T12:11:04.962Z,82.68
2022-11-04T12:12:04.988Z,82.81
2022-11-04T12:13:04.924Z,82.89
2022-11-04T12:14:04.919Z,83.06
2022-11-04T12:15:04.913Z,83.18
2022-11-04T12:16:04.911Z,83.23
2022-11-04T12:17:04.882Z,83.06
2022-11-04T12:18:04.888Z,82.76
2022-11-04T12:19:04.851Z,82.76
2022-11-04T12:20:07.727Z,82.86
2022-11-04T12:21:04.876Z,82.77
2022-11-04T12:22:04.843Z,82.90
2022-11-04T12:23:04.806Z,82.95
2022-11-04T12:24:04.797Z,82.98
2022-11-04T12:25:04.778Z,82.92
2022-11-04T12:26:04.785Z,82.82
2022-11-04T12:27:04.757Z,82.77
2022-11-04T12:28:04.769Z,82.90
2022-11-04T12:29:04.731Z,82.69
2022-11-04T12:30:04.731Z,83.02
2022-11-04T12:31:04.705Z,83.12
2022-11-04T12:32:04.707Z,83.15
2022-11-04T12:33:04.686Z,82.77
2022-11-04T12:34:04.789Z,82.53
2022-11-04T12:35:04.662Z,82.98
2022-11-04T12:36:04.648Z,81.61
2022-11-04T12:37:04.631Z,79.77
2022-11-04T12:38:04.626Z,78.14
2022-11-04T12:39:04.615Z,78.36
2022-11-04T12:40:04.781Z,78.94
2022-11-04T12:41:32.078Z,79.44
2022-11-04T12:42:21.896Z,80.29
2022-11-04T12:43:04.618Z,80.31
2022-11-04T12:44:04.548Z,80.35
2022-11-04T12:45:04.543Z,80.45
2022-11-04T12:46:04.531Z,79.34
2022-11-04T12:47:04.514Z,80.11
2022-11-04T12:48:04.515Z,80.71
2022-11-04T12:49:07.185Z,79.70
2022-11-04T12:50:04.543Z,79.58
2022-11-04T12:51:04.465Z,80.27
2022-11-04T12:52:04.446Z,80.58
2022-11-04T12:53:04.429Z,81.21
2022-11-04T12:54:04.432Z,80.36
2022-11-04T12:55:04.409Z,80.89
2022-11-04T12:56:04.409Z,80.57
2022-11-04T12:57:04.391Z,81.19
2022-11-04T12:58:04.396Z,81.75
2022-11-04T12:59:04.370Z,81.81
2022-11-04T13:00:04.353Z,80.91
2022-11-04T13:01:04.398Z,80.95
2022-11-04T13:02:04.571Z,80.83